1MA5 weather

Unknown Field
Southborough, Massachusetts, United States

Public forecast

Using degrees Fahrenheit for public forecast. Weather courtesy of forecast.io.

METAR (pilot weather report)

Closest report is Worcester Regional Airport, 14.6 nm (27.0 km) W. Retrieved 2019/09/21 09:54 UTC (10 minutes ago):

KORH 210954Z 29005KT 10SM CLR 16/09 A3019 RMK AO2 SLP221 T01560094

TAF (pilot weather forecast)

Closest forecast is Worcester Regional Airport, 14.6 nm (27.0 km) W. Retrieved 2019/09/21 06:27 UTC (4 hours ago):

TAF KORH 210524Z 2106/2206 29011KT P6SM SKC FM211000 32006KT P6SM FEW120 FM211500 28003KT P6SM SKC FM211700 25004KT P6SM SKC